Time;durP1;ratioP1;P1;durP2;ratioP2;P2;SDS_P1;SDS_P2;PMS_P1;PMS_P2;Temp;Humidity;BMP_temperature;BMP_pressure;BME280_temperature;BME280_humidity;BME280_pressure;Samples;Min_cycle;Max_cycle;Signal;HPM_P1;HPM_P2
2022/02/20 00:01:14;;;;;;;9.27;2.03;;;6.80;82.10;;;;;;5053174;28;20036;-65
2022/02/20 00:03:39;;;;;;;8.45;1.73;;;6.80;82.20;;;;;;5065704;28;20024;-65
2022/02/20 00:06:05;;;;;;;7.20;1.60;;;6.80;82.50;;;;;;5068215;28;20399;-65
2022/02/20 00:08:31;;;;;;;9.32;1.65;;;6.80;82.50;;;;;;5064931;28;20029;-65
2022/02/20 00:10:57;;;;;;;9.55;1.60;;;6.80;82.50;;;;;;5068942;28;20056;-65
2022/02/20 00:13:23;;;;;;;9.60;1.65;;;6.80;82.60;;;;;;5060181;28;20144;-65
2022/02/20 00:15:48;;;;;;;10.32;1.50;;;6.70;82.60;;;;;;5048284;28;20029;-65
2022/02/20 00:18:14;;;;;;;11.55;1.77;;;6.80;82.70;;;;;;5061252;28;20079;-65
2022/02/20 00:20:43;;;;;;;7.28;1.73;;;6.80;82.50;;;;;;5050131;28;20096;-65
2022/02/20 00:23:09;;;;;;;7.20;1.45;;;6.80;82.30;;;;;;5036469;28;20495;-65
2022/02/20 00:25:36;;;;;;;9.80;1.50;;;6.80;82.20;;;;;;5052361;28;20048;-65
2022/02/20 00:28:03;;;;;;;4.60;1.13;;;6.80;81.90;;;;;;5047323;28;20040;-64
2022/02/20 00:30:30;;;;;;;6.53;1.50;;;6.70;82.00;;;;;;5045853;28;20029;-64
2022/02/20 00:32:58;;;;;;;4.80;1.27;;;6.70;81.70;;;;;;5046437;28;20084;-65
2022/02/20 00:35:26;;;;;;;9.80;1.42;;;6.70;81.60;;;;;;5049422;28;20543;-64
2022/02/20 00:37:52;;;;;;;8.45;1.63;;;6.60;81.50;;;;;;5061342;28;20020;-64
2022/02/20 00:40:18;;;;;;;4.85;1.65;;;6.60;81.40;;;;;;5040731;28;20044;-64
2022/02/20 00:42:43;;;;;;;7.85;1.45;;;6.60;81.40;;;;;;5051874;28;20082;-65
2022/02/20 00:45:09;;;;;;;7.88;1.55;;;6.60;81.20;;;;;;5053425;28;20514;-65
2022/02/20 00:47:35;;;;;;;6.25;2.00;;;6.50;81.10;;;;;;5048782;28;20041;-65
2022/02/20 00:50:00;;;;;;;4.03;1.20;;;6.50;80.90;;;;;;5074545;28;20041;-65
2022/02/20 00:52:26;;;;;;;6.20;1.17;;;6.50;80.80;;;;;;5058737;28;20474;-65
2022/02/20 00:54:52;;;;;;;7.90;1.50;;;6.50;80.70;;;;;;5055214;28;20071;-65
2022/02/20 00:57:17;;;;;;;6.97;1.30;;;6.50;80.80;;;;;;5057024;28;20032;-65
2022/02/20 00:59:43;;;;;;;7.75;2.10;;;6.40;80.80;;;;;;5061136;28;20462;-65
2022/02/20 01:02:09;;;;;;;8.30;1.33;;;6.40;80.90;;;;;;5056631;28;20036;-65
2022/02/20 01:04:34;;;;;;;10.35;1.52;;;6.40;80.80;;;;;;5060846;28;20029;-65
2022/02/20 01:07:00;;;;;;;6.47;1.42;;;6.40;80.90;;;;;;5053382;28;20418;-65
2022/02/20 01:09:26;;;;;;;5.78;1.48;;;6.40;81.10;;;;;;5056842;28;20037;-65
2022/02/20 01:11:51;;;;;;;8.90;1.67;;;6.30;81.20;;;;;;5053275;28;20028;-65
2022/02/20 01:14:18;;;;;;;4.53;1.45;;;6.30;81.30;;;;;;5053818;28;20060;-65
2022/02/20 01:16:44;;;;;;;5.63;1.48;;;6.30;81.40;;;;;;5052193;28;20029;-65
2022/02/20 01:19:10;;;;;;;5.10;1.20;;;6.30;81.30;;;;;;5055146;28;20024;-65
2022/02/20 01:21:36;;;;;;;3.90;1.08;;;6.20;81.90;;;;;;5067109;28;20173;-65
2022/02/20 01:24:02;;;;;;;1.73;1.00;;;6.30;81.50;;;;;;5070802;28;20153;-65
2022/02/20 01:26:28;;;;;;;4.13;1.13;;;6.30;81.30;;;;;;5053295;28;20043;-65
2022/02/20 01:28:53;;;;;;;5.60;1.25;;;6.30;81.80;;;;;;5056747;28;20419;-65
2022/02/20 01:31:19;;;;;;;6.00;1.38;;;6.30;81.70;;;;;;5045213;28;20060;-65
2022/02/20 01:33:45;;;;;;;7.53;1.98;;;6.30;81.00;;;;;;5066084;28;20099;-65
2022/02/20 01:36:10;;;;;;;6.15;1.20;;;6.30;81.10;;;;;;5048525;28;20102;-65
2022/02/20 01:38:36;;;;;;;4.28;1.23;;;6.30;81.10;;;;;;5065771;28;20039;-65
2022/02/20 01:41:03;;;;;;;6.95;1.40;;;6.30;81.10;;;;;;5063743;28;20037;-65
2022/02/20 01:43:29;;;;;;;4.53;1.10;;;6.30;80.90;;;;;;5055097;28;20595;-64
2022/02/20 01:45:55;;;;;;;5.50;1.17;;;6.20;80.80;;;;;;5067131;28;20083;-65
2022/02/20 01:48:21;;;;;;;6.50;1.30;;;6.20;81.00;;;;;;5061367;28;20041;-65
2022/02/20 01:50:47;;;;;;;5.63;1.05;;;6.20;80.90;;;;;;5057402;28;20033;-65
2022/02/20 01:53:13;;;;;;;6.03;2.42;;;6.30;81.10;;;;;;5060003;28;20055;-65
2022/02/20 01:55:39;;;;;;;7.25;2.10;;;6.30;81.20;;;;;;5070032;28;20506;-65
2022/02/20 01:58:05;;;;;;;10.57;1.52;;;6.20;81.30;;;;;;5066483;28;20046;-65
2022/02/20 02:00:31;;;;;;;4.07;1.35;;;6.30;81.50;;;;;;5057126;28;20048;-65
2022/02/20 02:02:56;;;;;;;5.35;1.77;;;6.30;81.40;;;;;;5055202;28;20084;-65
2022/02/20 02:05:22;;;;;;;5.45;1.25;;;6.30;81.30;;;;;;5054950;28;20029;-65
2022/02/20 02:07:51;;;;;;;4.43;1.60;;;6.30;81.30;;;;;;5060068;28;20117;-65
2022/02/20 02:10:16;;;;;;;3.70;1.45;;;6.30;81.30;;;;;;5067172;28;20115;-65
2022/02/20 02:12:42;;;;;;;4.10;1.38;;;6.30;81.30;;;;;;5059912;28;20107;-65
2022/02/20 02:15:10;;;;;;;3.40;1.38;;;6.30;80.90;;;;;;5058996;28;20036;-67
2022/02/20 02:17:36;;;;;;;2.90;1.30;;;6.30;80.90;;;;;;5062700;28;20062;-65
2022/02/20 02:20:03;;;;;;;9.00;1.65;;;6.30;80.90;;;;;;5050944;28;20057;-65
2022/02/20 02:22:30;;;;;;;4.57;1.30;;;6.30;80.60;;;;;;5044142;28;20121;-65
2022/02/20 02:24:57;;;;;;;7.75;1.80;;;6.30;80.40;;;;;;5056806;28;20033;-65
2022/02/20 02:27:23;;;;;;;5.85;1.60;;;6.30;80.50;;;;;;5042694;28;20035;-65
2022/02/20 02:29:49;;;;;;;4.05;1.23;;;6.40;80.40;;;;;;5040585;28;20476;-64
2022/02/20 02:32:16;;;;;;;5.82;1.30;;;6.30;80.50;;;;;;5057433;28;20118;-65
2022/02/20 02:34:45;;;;;;;4.03;2.03;;;6.40;80.50;;;;;;5038420;28;20123;-65
2022/02/20 02:37:11;;;;;;;4.72;1.20;;;6.40;80.40;;;;;;5049008;28;20021;-65
2022/02/20 02:39:38;;;;;;;3.60;0.93;;;6.40;80.90;;;;;;5074634;28;20041;-62
2022/02/20 02:42:06;;;;;;;4.38;1.10;;;6.40;80.40;;;;;;5046099;28;20025;-62
2022/02/20 02:44:31;;;;;;;3.47;1.10;;;6.40;80.20;;;;;;5054861;28;20417;-62
2022/02/20 02:46:57;;;;;;;3.63;1.10;;;6.40;80.00;;;;;;5053529;28;20499;-62
2022/02/20 02:49:23;;;;;;;4.35;1.27;;;6.40;80.10;;;;;;5048022;28;20503;-62
2022/02/20 02:51:49;;;;;;;3.15;1.30;;;6.40;79.80;;;;;;5051292;28;20024;-65
2022/02/20 02:54:18;;;;;;;1.58;1.17;;;6.30;79.60;;;;;;5050146;28;20391;-65
2022/02/20 02:56:45;;;;;;;3.78;1.10;;;6.30;79.70;;;;;;5051145;28;20020;-62
2022/02/20 02:59:12;;;;;;;4.38;1.33;;;6.30;79.80;;;;;;5048796;28;20041;-63
2022/02/20 03:01:37;;;;;;;1.77;0.82;;;6.30;79.90;;;;;;5051625;28;20033;-65
2022/02/20 03:04:03;;;;;;;2.78;1.00;;;6.40;80.00;;;;;;5069198;28;20052;-65
2022/02/20 03:06:29;;;;;;;4.50;0.90;;;6.30;80.00;;;;;;5068286;28;20028;-65
2022/02/20 03:08:55;;;;;;;3.17;0.90;;;6.40;80.00;;;;;;5049919;28;20553;-65
2022/02/20 03:11:20;;;;;;;3.67;0.90;;;6.40;80.00;;;;;;5050033;28;20452;-65
2022/02/20 03:13:46;;;;;;;2.60;0.82;;;6.40;79.90;;;;;;5054343;28;20261;-65
2022/02/20 03:16:12;;;;;;;4.85;1.20;;;6.40;80.00;;;;;;5050061;28;20033;-65
2022/02/20 03:18:37;;;;;;;6.35;1.10;;;6.40;80.00;;;;;;5041638;28;20071;-65
2022/02/20 03:21:06;;;;;;;2.55;0.90;;;6.40;80.00;;;;;;5048723;28;20436;-65
2022/02/20 03:23:32;;;;;;;2.65;0.90;;;6.40;80.10;;;;;;5053136;28;20045;-65
2022/02/20 03:25:58;;;;;;;4.13;0.90;;;6.40;80.20;;;;;;5048345;28;20025;-65
2022/02/20 03:28:24;;;;;;;4.13;1.23;;;6.40;80.10;;;;;;5066293;28;20503;-65
2022/02/20 03:30:49;;;;;;;1.77;0.77;;;6.40;80.70;;;;;;5069428;28;20028;-65
2022/02/20 03:33:16;;;;;;;2.25;0.90;;;6.40;80.10;;;;;;5053501;28;20057;-65
2022/02/20 03:35:43;;;;;;;7.03;1.10;;;6.40;80.20;;;;;;5049481;28;20025;-62
2022/02/20 03:38:09;;;;;;;4.32;1.23;;;6.40;80.20;;;;;;5053063;28;20502;-62
2022/02/20 03:40:35;;;;;;;3.38;0.90;;;6.30;80.30;;;;;;5050495;28;20037;-62
2022/02/20 03:43:01;;;;;;;4.68;0.88;;;6.30;80.30;;;;;;5060450;28;20040;-62
2022/02/20 03:45:27;;;;;;;4.80;1.00;;;6.30;80.30;;;;;;5050209;28;20399;-62
2022/02/20 03:47:53;;;;;;;2.78;0.73;;;6.30;80.30;;;;;;5081148;28;20040;-63
2022/02/20 03:50:19;;;;;;;1.85;0.85;;;6.30;81.00;;;;;;5059757;28;20070;-62
2022/02/20 03:52:45;;;;;;;3.72;1.50;;;6.20;80.40;;;;;;5067205;28;20068;-62
2022/02/20 03:55:12;;;;;;;2.75;0.88;;;6.30;81.00;;;;;;5060191;28;20029;-63
2022/02/20 03:57:38;;;;;;;3.17;0.85;;;6.30;80.50;;;;;;5065406;28;20514;-62
2022/02/20 04:00:10;;;;;;;6.07;0.90;;;6.30;80.20;;;;;;5067773;28;20425;-62
2022/02/20 04:02:39;;;;;;;10.57;2.67;;;6.30;80.20;;;;;;5068802;28;20347;-62
2022/02/20 04:05:11;;;;;;;4.82;1.50;;;6.30;80.20;;;;;;5062222;28;20044;-62
2022/02/20 04:07:37;;;;;;;6.25;1.00;;;6.30;80.20;;;;;;5049102;28;20025;-63
2022/02/20 04:10:04;;;;;;;1.98;0.63;;;6.30;80.20;;;;;;5054267;28;20388;-63
2022/02/20 04:12:30;;;;;;;2.92;0.82;;;6.30;80.30;;;;;;5051626;28;20033;-63
2022/02/20 04:14:56;;;;;;;3.47;0.70;;;6.30;80.30;;;;;;5041818;28;20391;-62
2022/02/20 04:17:23;;;;;;;5.18;0.80;;;6.30;80.30;;;;;;5055805;28;20438;-62
2022/02/20 04:19:49;;;;;;;8.65;1.20;;;6.40;80.50;;;;;;5071092;28;20057;-63
2022/02/20 04:22:15;;;;;;;7.13;1.15;;;6.40;80.40;;;;;;5048617;28;20037;-63
2022/02/20 04:24:41;;;;;;;6.53;1.17;;;6.40;80.40;;;;;;5058342;28;20041;-63
2022/02/20 04:27:07;;;;;;;5.57;1.40;;;6.30;80.50;;;;;;5059030;28;20055;-63
2022/02/20 04:29:33;;;;;;;2.78;0.90;;;6.30;80.70;;;;;;5051937;28;20045;-62
2022/02/20 04:31:59;;;;;;;4.53;0.95;;;6.30;80.80;;;;;;5051653;28;20079;-63
2022/02/20 04:34:25;;;;;;;5.03;1.10;;;6.30;80.90;;;;;;5049469;28;20029;-62
2022/02/20 04:36:51;;;;;;;7.82;1.17;;;6.30;81.60;;;;;;5033234;28;20028;-63
2022/02/20 04:39:17;;;;;;;5.18;1.10;;;6.30;81.00;;;;;;5053351;28;20112;-63
2022/02/20 04:41:43;;;;;;;6.72;1.13;;;6.20;80.90;;;;;;5038430;28;20456;-62
2022/02/20 04:44:09;;;;;;;7.50;1.27;;;6.30;81.20;;;;;;5080819;28;20033;-62
2022/02/20 04:46:35;;;;;;;4.88;1.30;;;6.30;81.20;;;;;;5060980;28;20032;-63
2022/02/20 04:49:06;;;;;;;4.53;1.50;;;6.20;81.30;;;;;;5067948;28;20036;-62
2022/02/20 04:51:33;;;;;;;7.45;1.70;;;6.20;81.20;;;;;;5057431;28;20476;-62
2022/02/20 04:54:03;;;;;;;4.75;1.67;;;6.20;81.30;;;;;;5051136;28;20017;-62
2022/02/20 04:56:29;;;;;;;7.70;1.42;;;6.20;81.30;;;;;;5062418;28;20424;-62
2022/02/20 04:58:55;;;;;;;10.55;2.78;;;6.20;81.30;;;;;;5072207;28;20518;-62
2022/02/20 05:01:22;;;;;;;6.28;1.92;;;6.20;81.20;;;;;;5062254;28;20032;-65
2022/02/20 05:03:48;;;;;;;5.22;1.98;;;6.20;81.20;;;;;;5051675;28;20113;-65
2022/02/20 05:06:14;;;;;;;6.57;2.25;;;6.20;81.10;;;;;;5048205;28;20124;-65
2022/02/20 05:08:40;;;;;;;6.60;1.95;;;6.20;81.10;;;;;;5053270;28;20127;-65
2022/02/20 05:11:05;;;;;;;4.57;2.47;;;6.20;81.30;;;;;;5069351;28;20067;-65
2022/02/20 05:13:31;;;;;;;9.73;2.47;;;6.20;81.40;;;;;;5071585;28;20112;-65
2022/02/20 05:15:57;;;;;;;4.65;2.38;;;6.30;81.40;;;;;;5067667;28;20157;-65
2022/02/20 05:18:22;;;;;;;9.32;3.03;;;6.30;81.50;;;;;;5058682;28;20021;-65
2022/02/20 05:20:54;;;;;;;8.07;3.15;;;6.30;81.80;;;;;;5066931;28;20032;-65
2022/02/20 05:23:23;;;;;;;6.07;3.03;;;6.30;81.80;;;;;;5055236;28;20132;-65
2022/02/20 05:25:50;;;;;;;7.00;2.65;;;6.30;81.90;;;;;;5051095;28;20763;-65
2022/02/20 05:28:16;;;;;;;8.98;3.40;;;6.30;82.20;;;;;;5052151;28;20056;-65
2022/02/20 05:30:42;;;;;;;5.97;3.40;;;6.30;82.50;;;;;;5056977;28;20036;-65
2022/02/20 05:33:07;;;;;;;8.52;3.58;;;6.30;82.50;;;;;;5053377;28;20492;-65
2022/02/20 05:35:33;;;;;;;7.03;3.85;;;6.30;82.70;;;;;;5052991;28;20025;-65
2022/02/20 05:37:59;;;;;;;7.47;4.18;;;6.30;83.10;;;;;;5057964;28;20104;-65
2022/02/20 05:40:25;;;;;;;7.53;3.70;;;6.30;83.10;;;;;;5055785;28;20376;-65
2022/02/20 05:42:53;;;;;;;10.40;4.93;;;6.30;83.30;;;;;;5060386;28;20029;-65
2022/02/20 05:45:19;;;;;;;8.10;4.35;;;6.30;83.20;;;;;;5057317;28;20130;-65
2022/02/20 05:47:45;;;;;;;8.85;4.95;;;6.30;83.40;;;;;;5063284;28;20483;-65
2022/02/20 05:50:11;;;;;;;13.02;5.00;;;6.30;83.50;;;;;;5066938;28;20170;-65
2022/02/20 05:52:37;;;;;;;12.85;6.28;;;6.30;83.80;;;;;;5061418;28;20025;-65
2022/02/20 05:55:04;;;;;;;11.15;6.00;;;6.30;84.40;;;;;;5067579;28;20025;-65
2022/02/20 05:57:40;;;;;;;11.07;6.10;;;6.30;84.00;;;;;;5055479;28;20052;-65
2022/02/20 06:00:06;;;;;;;14.68;6.97;;;6.30;84.20;;;;;;5056455;28;20191;-65
2022/02/20 06:02:32;;;;;;;13.57;6.78;;;6.30;84.40;;;;;;5054848;28;20480;-65
2022/02/20 06:04:57;;;;;;;14.73;7.60;;;6.30;84.50;;;;;;5050881;28;20033;-65
2022/02/20 06:07:23;;;;;;;10.52;7.00;;;6.30;84.80;;;;;;5057259;28;20037;-65
2022/02/20 06:09:49;;;;;;;11.70;6.97;;;6.20;84.80;;;;;;5055058;28;20025;-63
2022/02/20 06:12:14;;;;;;;11.80;6.65;;;6.20;85.00;;;;;;5050380;28;20084;-63
2022/02/20 06:14:40;;;;;;;10.52;5.95;;;6.20;85.10;;;;;;5049000;28;20111;-63
2022/02/20 06:17:06;;;;;;;11.00;6.53;;;6.20;85.20;;;;;;5048333;28;20482;-63
2022/02/20 06:19:31;;;;;;;10.80;7.03;;;6.20;85.70;;;;;;5049446;28;21130;-63
2022/02/20 06:21:57;;;;;;;16.58;6.82;;;6.20;86.00;;;;;;5051391;28;20032;-63
2022/02/20 06:24:23;;;;;;;13.70;6.10;;;6.20;86.20;;;;;;5056873;28;20040;-63
2022/02/20 06:26:48;;;;;;;14.57;6.78;;;6.20;86.30;;;;;;5056226;28;20040;-63
2022/02/20 06:29:14;;;;;;;16.88;6.57;;;6.20;86.40;;;;;;5052745;28;20103;-63
2022/02/20 06:31:40;;;;;;;17.90;6.70;;;6.20;86.70;;;;;;5051750;28;20044;-63
2022/02/20 06:34:06;;;;;;;12.63;5.82;;;6.20;87.10;;;;;;5051093;28;20138;-63
2022/02/20 06:36:31;;;;;;;16.13;6.50;;;6.20;87.30;;;;;;5054327;28;20045;-63
2022/02/20 06:38:57;;;;;;;14.38;6.47;;;6.30;87.50;;;;;;5063363;28;20365;-63
2022/02/20 06:41:23;;;;;;;12.57;5.90;;;6.30;87.90;;;;;;5053889;28;20056;-63
2022/02/20 06:43:49;;;;;;;13.35;5.70;;;6.40;87.90;;;;;;5048829;28;20349;-63
2022/02/20 06:46:14;;;;;;;14.15;6.10;;;6.40;88.60;;;;;;5052472;28;20035;-63
2022/02/20 06:48:40;;;;;;;15.35;6.78;;;6.40;88.10;;;;;;5055916;28;20101;-65
2022/02/20 06:51:06;;;;;;;16.98;5.95;;;6.40;88.40;;;;;;5046973;28;20037;-65
2022/02/20 06:53:31;;;;;;;12.00;5.68;;;6.50;88.40;;;;;;5046847;28;20484;-65
2022/02/20 06:55:57;;;;;;;20.13;6.65;;;6.50;88.70;;;;;;5049073;28;20021;-65
2022/02/20 06:58:23;;;;;;;21.05;7.00;;;6.50;89.40;;;;;;5047581;28;20675;-66
2022/02/20 07:00:49;;;;;;;17.48;6.55;;;6.50;89.70;;;;;;5048692;28;20032;-67
2022/02/20 07:03:14;;;;;;;20.13;7.70;;;6.50;89.70;;;;;;5049569;28;20373;-66
2022/02/20 07:05:41;;;;;;;15.55;5.45;;;6.50;90.00;;;;;;5050465;28;20044;-66
2022/02/20 07:08:06;;;;;;;21.20;6.68;;;6.50;90.10;;;;;;5048416;28;20367;-66
2022/02/20 07:10:32;;;;;;;16.48;5.97;;;6.60;90.30;;;;;;5048427;28;20548;-66
2022/02/20 07:12:58;;;;;;;11.57;5.63;;;6.60;90.50;;;;;;5048332;28;20262;-66
2022/02/20 07:15:25;;;;;;;19.33;6.28;;;6.60;90.50;;;;;;5048077;28;20036;-66
2022/02/20 07:17:51;;;;;;;13.88;5.25;;;6.60;90.60;;;;;;5046746;28;20525;-66
2022/02/20 07:20:17;;;;;;;16.58;6.78;;;6.70;91.10;;;;;;5049920;28;20077;-67
2022/02/20 07:22:42;;;;;;;18.70;5.35;;;6.70;90.90;;;;;;5061126;28;20032;-66
2022/02/20 07:25:08;;;;;;;14.35;4.78;;;6.70;91.00;;;;;;5049397;28;20041;-63
2022/02/20 07:27:45;;;;;;;12.55;4.13;;;6.80;91.10;;;;;;5049832;28;20091;-64
2022/02/20 07:30:12;;;;;;;13.38;4.00;;;6.80;91.10;;;;;;5049495;28;20067;-62
2022/02/20 07:32:39;;;;;;;11.85;4.10;;;6.90;91.20;;;;;;5050176;28;20361;-62
2022/02/20 07:35:06;;;;;;;12.52;4.50;;;6.90;91.20;;;;;;5048919;28;20469;-63
2022/02/20 07:37:31;;;;;;;18.33;5.57;;;6.90;91.20;;;;;;5049328;28;20052;-62
2022/02/20 07:39:58;;;;;;;13.77;4.28;;;7.00;91.40;;;;;;5049717;28;20025;-63
2022/02/20 07:42:24;;;;;;;18.55;5.82;;;7.00;91.50;;;;;;5048717;28;20041;-63
2022/02/20 07:44:51;;;;;;;10.77;3.65;;;7.00;91.60;;;;;;5055391;28;20033;-63
2022/02/20 07:47:17;;;;;;;12.65;3.83;;;7.10;91.70;;;;;;5056708;28;20468;-63
2022/02/20 07:49:42;;;;;;;15.23;4.05;;;7.10;91.80;;;;;;5048952;28;20035;-63
2022/02/20 07:52:08;;;;;;;11.77;3.65;;;7.10;92.00;;;;;;5047844;28;20129;-62
2022/02/20 07:54:34;;;;;;;10.63;3.72;;;7.20;92.10;;;;;;5047274;28;20041;-62
2022/02/20 07:56:59;;;;;;;10.10;3.83;;;7.20;92.10;;;;;;5038335;28;20092;-62
2022/02/20 07:59:28;;;;;;;11.18;3.75;;;7.30;92.20;;;;;;5045466;28;20386;-62
2022/02/20 08:01:54;;;;;;;13.23;4.20;;;7.30;92.30;;;;;;5066054;28;20040;-63
2022/02/20 08:04:20;;;;;;;13.27;3.95;;;7.40;92.30;;;;;;5076001;28;20033;-62
2022/02/20 08:06:46;;;;;;;8.68;2.83;;;7.40;92.30;;;;;;5033089;28;20029;-63
2022/02/20 08:09:12;;;;;;;9.75;3.42;;;7.40;92.30;;;;;;5048696;28;20025;-62
2022/02/20 08:11:38;;;;;;;10.80;2.97;;;7.50;92.40;;;;;;5048921;28;20479;-62
2022/02/20 08:14:05;;;;;;;11.30;3.88;;;7.50;92.70;;;;;;5035086;28;20029;-63
2022/02/20 08:16:31;;;;;;;8.88;3.20;;;7.60;92.60;;;;;;5037826;28;20036;-62
2022/02/20 08:18:57;;;;;;;10.75;3.60;;;7.70;92.80;;;;;;5048347;28;20047;-62
2022/02/20 08:21:22;;;;;;;9.48;3.33;;;7.70;92.80;;;;;;5040126;28;20026;-63
2022/02/20 08:23:50;;;;;;;7.35;3.53;;;7.80;92.90;;;;;;5041207;28;20040;-63
2022/02/20 08:26:16;;;;;;;7.30;3.72;;;7.80;92.90;;;;;;5046385;28;20460;-62
2022/02/20 08:28:41;;;;;;;12.00;4.55;;;7.90;93.10;;;;;;5050118;28;20021;-62
2022/02/20 08:31:09;;;;;;;7.97;4.05;;;7.90;93.40;;;;;;5047266;28;20036;-62
2022/02/20 08:33:34;;;;;;;7.35;4.00;;;8.00;93.10;;;;;;5040791;28;20045;-62
2022/02/20 08:36:00;;;;;;;5.47;3.85;;;8.10;93.20;;;;;;5052370;28;20075;-62
2022/02/20 08:38:26;;;;;;;6.18;4.00;;;8.20;93.20;;;;;;5047766;28;20036;-62
2022/02/20 08:40:52;;;;;;;7.70;4.55;;;8.20;93.30;;;;;;5046999;28;20029;-62
2022/02/20 08:43:20;;;;;;;8.25;4.38;;;8.30;93.30;;;;;;5044116;28;20404;-62
2022/02/20 08:45:48;;;;;;;7.25;4.25;;;8.30;93.20;;;;;;5045931;28;20036;-62
2022/02/20 08:48:16;;;;;;;8.13;4.03;;;8.40;93.30;;;;;;5047234;28;20048;-63
2022/02/20 08:50:42;;;;;;;6.72;3.90;;;8.40;93.20;;;;;;5049959;28;20029;-63
2022/02/20 08:53:08;;;;;;;6.78;4.20;;;8.50;93.20;;;;;;5049163;28;20545;-61
2022/02/20 08:55:34;;;;;;;7.18;4.60;;;8.50;93.50;;;;;;5049631;28;20044;-62
2022/02/20 08:58:00;;;;;;;5.07;3.97;;;8.60;93.20;;;;;;5047802;28;20025;-62
2022/02/20 09:00:26;;;;;;;8.07;4.28;;;8.60;93.20;;;;;;5046903;28;20107;-62
2022/02/20 09:02:51;;;;;;;8.18;4.80;;;8.60;93.10;;;;;;5044700;28;20032;-63
2022/02/20 09:05:17;;;;;;;9.57;5.00;;;8.70;93.10;;;;;;5048924;28;20107;-63
2022/02/20 09:07:43;;;;;;;8.32;4.93;;;8.70;93.00;;;;;;5042842;28;20060;-62
2022/02/20 09:10:11;;;;;;;10.38;5.60;;;8.80;93.00;;;;;;5071653;28;20033;-62
2022/02/20 09:12:38;;;;;;;9.82;5.38;;;8.80;93.00;;;;;;5037341;28;20090;-62
2022/02/20 09:15:05;;;;;;;12.13;6.00;;;8.90;92.70;;;;;;5049850;28;20549;-62
2022/02/20 09:17:32;;;;;;;14.80;6.50;;;8.90;93.00;;;;;;5057449;28;20534;-63
2022/02/20 09:20:01;;;;;;;15.60;6.90;;;8.90;93.00;;;;;;5051545;28;20029;-62
2022/02/20 09:22:27;;;;;;;18.85;6.25;;;9.00;93.00;;;;;;5051046;28;20036;-62
2022/02/20 09:24:54;;;;;;;13.52;6.15;;;9.00;93.00;;;;;;5049252;28;20476;-62
2022/02/20 09:27:21;;;;;;;21.40;7.13;;;9.10;92.90;;;;;;5050291;28;20086;-67
2022/02/20 09:29:46;;;;;;;15.45;7.55;;;9.10;92.90;;;;;;5049835;28;20476;-63
2022/02/20 09:32:12;;;;;;;18.92;8.20;;;9.20;92.90;;;;;;5054473;28;20048;-62
2022/02/20 09:34:38;;;;;;;23.45;7.90;;;9.20;92.90;;;;;;5051952;28;20025;-62
2022/02/20 09:37:05;;;;;;;20.55;8.00;;;9.30;92.80;;;;;;5054919;28;20025;-62
2022/02/20 09:39:31;;;;;;;25.45;8.90;;;9.30;92.70;;;;;;5051381;28;20815;-62
2022/02/20 09:42:00;;;;;;;18.35;9.10;;;9.30;92.70;;;;;;5048958;28;20036;-63
2022/02/20 09:44:29;;;;;;;19.73;8.48;;;9.30;92.60;;;;;;5045474;28;20545;-63
2022/02/20 09:46:55;;;;;;;16.73;7.68;;;9.40;92.60;;;;;;5055540;28;20033;-63
2022/02/20 09:49:28;;;;;;;22.05;8.60;;;9.40;92.50;;;;;;5050592;28;20047;-63
2022/02/20 09:51:55;;;;;;;23.20;9.52;;;9.40;92.40;;;;;;5067853;28;20241;-62
2022/02/20 09:54:21;;;;;;;20.80;8.63;;;9.40;92.40;;;;;;5040364;28;20039;-62
2022/02/20 09:56:47;;;;;;;25.35;8.27;;;9.50;92.40;;;;;;5053744;28;20519;-62
2022/02/20 09:59:13;;;;;;;19.48;8.60;;;9.50;92.30;;;;;;5068359;28;20113;-62
2022/02/20 10:02:12;;;;;;;23.48;8.55;;;9.60;92.30;;;;;;5035210;28;20052;-62
2022/02/20 10:04:42;;;;;;;27.10;8.65;;;9.60;92.20;;;;;;5065661;28;20029;-62
2022/02/20 10:07:25;;;;;;;26.42;9.25;;;9.60;92.10;;;;;;5040699;28;20037;-62
2022/02/20 10:09:51;;;;;;;33.25;8.45;;;9.60;92.00;;;;;;5034111;28;20419;-62
2022/02/20 10:12:21;;;;;;;28.27;7.68;;;9.70;92.00;;;;;;5045064;28;20094;-62
2022/02/20 10:14:48;;;;;;;26.85;7.95;;;9.70;91.90;;;;;;5036787;28;20453;-62
2022/02/20 10:17:18;;;;;;;24.58;7.95;;;9.80;91.90;;;;;;5045301;28;20043;-62
2022/02/20 10:19:57;;;;;;;22.67;7.00;;;9.80;91.90;;;;;;5041960;28;20028;-62
2022/02/20 10:22:36;;;;;;;27.67;8.10;;;9.80;91.80;;;;;;5047392;28;20518;-62
2022/02/20 10:25:10;;;;;;;28.20;8.02;;;9.80;91.70;;;;;;5044534;28;20032;-62
2022/02/20 10:27:47;;;;;;;31.83;8.10;;;9.90;91.60;;;;;;5043431;28;20032;-62
2022/02/20 10:30:13;;;;;;;26.40;6.88;;;9.90;91.60;;;;;;5034883;28;20119;-62
2022/02/20 10:32:39;;;;;;;33.38;7.90;;;9.90;91.50;;;;;;5039940;28;20171;-63
2022/02/20 10:35:16;;;;;;;27.77;7.38;;;9.90;91.30;;;;;;5071477;28;20037;-62
2022/02/20 10:37:42;;;;;;;29.30;8.10;;;10.00;91.30;;;;;;5037092;28;20558;-62
2022/02/20 10:40:30;;;;;;;37.10;7.82;;;10.00;91.30;;;;;;5044008;28;20475;-67
2022/02/20 10:43:02;;;;;;;26.20;7.78;;;10.00;91.20;;;;;;5044642;28;20052;-67
2022/02/20 10:45:34;;;;;;;37.10;8.25;;;10.00;91.10;;;;;;5051867;28;20521;-67
2022/02/20 10:48:02;;;;;;;29.67;6.93;;;10.00;91.10;;;;;;5045954;28;20112;-67
2022/02/20 10:50:31;;;;;;;38.30;7.60;;;10.00;91.10;;;;;;5042727;28;20684;-68
2022/02/20 10:53:09;;;;;;;32.30;7.70;;;10.00;91.10;;;;;;5042507;28;20029;-67
2022/02/20 10:55:47;;;;;;;39.75;7.07;;;10.10;91.00;;;;;;5042991;28;20063;-67
2022/02/20 10:58:23;;;;;;;31.95;7.35;;;10.10;91.00;;;;;;5043116;28;20023;-67
2022/02/20 11:00:52;;;;;;;40.20;8.23;;;10.10;91.00;;;;;;5044518;28;20504;-69
2022/02/20 11:03:29;;;;;;;36.35;7.15;;;10.10;91.00;;;;;;5049417;28;20483;-67
2022/02/20 11:05:57;;;;;;;40.30;6.47;;;10.10;91.00;;;;;;5047207;28;20476;-62
2022/02/20 11:08:25;;;;;;;34.13;7.28;;;10.10;91.00;;;;;;5053082;28;20452;-63
2022/02/20 11:10:52;;;;;;;33.05;6.65;;;10.10;91.00;;;;;;5039274;28;20028;-63
2022/02/20 11:13:20;;;;;;;32.95;7.45;;;10.10;91.00;;;;;;5041342;28;20498;-62
2022/02/20 11:15:50;;;;;;;30.90;6.90;;;10.20;91.00;;;;;;5049429;28;20061;-62
2022/02/20 11:18:19;;;;;;;37.00;7.40;;;10.20;91.00;;;;;;5043364;28;20098;-62
2022/02/20 11:20:47;;;;;;;31.45;6.75;;;10.10;91.00;;;;;;5037960;28;20033;-63
2022/02/20 11:23:16;;;;;;;31.10;7.40;;;10.20;91.10;;;;;;5041415;28;20021;-62
2022/02/20 11:25:45;;;;;;;38.38;6.80;;;10.20;91.10;;;;;;5039019;28;20427;-62
2022/02/20 11:28:11;;;;;;;35.83;6.70;;;10.20;91.10;;;;;;5032910;28;20456;-63
2022/02/20 11:30:36;;;;;;;37.58;6.13;;;10.20;91.10;;;;;;5032311;28;20095;-62
2022/02/20 11:33:09;;;;;;;31.63;6.03;;;10.20;91.10;;;;;;5038900;28;20045;-62
2022/02/20 11:35:43;;;;;;;34.55;6.68;;;10.20;91.00;;;;;;5047825;28;20039;-62
2022/02/20 11:38:21;;;;;;;31.17;5.65;;;10.20;91.10;;;;;;5047844;28;20453;-62
2022/02/20 11:41:09;;;;;;;35.90;5.85;;;10.20;91.10;;;;;;5039031;28;20035;-63
2022/02/20 11:43:46;;;;;;;30.75;6.32;;;10.20;91.00;;;;;;5043916;28;20032;-62
2022/02/20 11:46:14;;;;;;;30.67;5.53;;;10.20;91.10;;;;;;5034501;28;20571;-63
2022/02/20 11:49:02;;;;;;;29.83;6.50;;;10.20;91.10;;;;;;5030684;28;20052;-62
2022/02/20 11:51:31;;;;;;;29.60;5.82;;;10.20;91.20;;;;;;5051517;28;20033;-62
2022/02/20 11:54:17;;;;;;;32.97;6.22;;;10.20;91.20;;;;;;5048592;28;20021;-62
2022/02/20 11:56:44;;;;;;;25.50;5.43;;;10.20;91.20;;;;;;5055736;28;20105;-62
2022/02/20 11:59:18;;;;;;;28.83;5.47;;;10.20;91.20;;;;;;5055756;28;20043;-63
2022/02/20 12:02:12;;;;;;;27.60;4.88;;;10.20;91.20;;;;;;5051676;28;20556;-62
2022/02/20 12:04:53;;;;;;;26.63;4.95;;;10.20;91.20;;;;;;5056556;28;20426;-63
2022/02/20 12:07:46;;;;;;;22.50;4.93;;;10.20;91.30;;;;;;5070812;28;20553;-62
2022/02/20 12:10:19;;;;;;;22.80;5.32;;;10.20;91.30;;;;;;5041155;28;20045;-62
2022/02/20 12:12:48;;;;;;;22.85;5.10;;;10.20;91.40;;;;;;5043956;28;20024;-63
2022/02/20 12:15:40;;;;;;;31.60;6.22;;;10.20;91.40;;;;;;5062365;28;20033;-62
2022/02/20 12:18:11;;;;;;;22.45;5.15;;;10.20;91.30;;;;;;5053469;28;20527;-63
2022/02/20 12:20:49;;;;;;;29.47;5.70;;;10.20;91.40;;;;;;5049171;28;20065;-62
2022/02/20 12:23:34;;;;;;;24.50;4.53;;;10.10;91.40;;;;;;5043938;28;20345;-63
2022/02/20 12:26:27;;;;;;;23.65;4.93;;;10.20;91.40;;;;;;5045791;28;20605;-63
2022/02/20 12:28:52;;;;;;;24.70;4.80;;;10.10;91.40;;;;;;5040632;28;20452;-63
2022/02/20 12:31:31;;;;;;;21.27;4.32;;;10.10;91.40;;;;;;5048515;28;20030;-66
2022/02/20 12:33:57;;;;;;;26.80;5.13;;;10.20;91.50;;;;;;5053111;28;20033;-67
2022/02/20 12:36:28;;;;;;;33.10;6.07;;;10.20;91.50;;;;;;5035113;28;20449;-67
2022/02/20 12:38:57;;;;;;;23.38;5.20;;;10.10;91.50;;;;;;5038212;28;20148;-67
2022/02/20 12:41:22;;;;;;;28.40;6.10;;;10.10;91.60;;;;;;5047218;28;20495;-67
2022/02/20 12:43:51;;;;;;;31.30;6.72;;;10.10;91.60;;;;;;5052495;28;20029;-67
2022/02/20 12:46:17;;;;;;;22.17;6.10;;;10.10;91.60;;;;;;5052221;28;20029;-67
2022/02/20 12:48:43;;;;;;;29.75;5.97;;;10.10;91.60;;;;;;5051903;28;20037;-67
2022/02/20 12:51:14;;;;;;;30.00;6.40;;;10.10;91.60;;;;;;5052437;28;20123;-67
2022/02/20 12:53:42;;;;;;;21.98;4.95;;;10.10;91.60;;;;;;5066118;28;20064;-67